Time;durP1;ratioP1;P1;durP2;ratioP2;P2;SDS_P1;SDS_P2;PMS_P1;PMS_P2;Temp;Humidity;BMP_temperature;BMP_pressure;BME280_temperature;BME280_humidity;BME280_pressure;Samples;Min_cycle;Max_cycle;Signal;HPM_P1;HPM_P2
2021/09/18 00:01:29;;;;;;;50.50;24.85;;;17.70;97.00;;;;;;4904265;29;20063;-92
2021/09/18 00:03:55;;;;;;;51.10;25.02;;;17.70;97.20;;;;;;4904590;29;20535;-92
2021/09/18 00:06:24;;;;;;;45.88;21.65;;;17.70;97.30;;;;;;4920007;29;20059;-91
2021/09/18 00:08:50;;;;;;;42.17;21.75;;;17.70;97.40;;;;;;4904167;29;20037;-91
2021/09/18 00:11:16;;;;;;;40.63;20.42;;;17.70;97.50;;;;;;4903967;29;20055;-93
2021/09/18 00:13:44;;;;;;;37.50;18.20;;;17.70;97.50;;;;;;4903970;29;20134;-92
2021/09/18 00:16:10;;;;;;;31.88;16.98;;;17.70;97.70;;;;;;4903909;29;20032;-91
2021/09/18 00:18:36;;;;;;;34.15;19.30;;;17.70;97.80;;;;;;4904170;29;20024;-92
2021/09/18 00:21:02;;;;;;;37.92;19.20;;;17.70;98.00;;;;;;4904231;29;20392;-92
2021/09/18 00:23:29;;;;;;;35.42;18.95;;;17.70;97.90;;;;;;4903671;29;20031;-92
2021/09/18 00:25:54;;;;;;;41.88;22.13;;;17.70;98.00;;;;;;4904169;29;20028;-94
2021/09/18 00:28:20;;;;;;;45.30;21.88;;;17.80;98.10;;;;;;4903739;29;20103;-94
2021/09/18 00:30:46;;;;;;;49.05;23.15;;;17.80;98.10;;;;;;4903348;29;20060;-94
2021/09/18 00:33:12;;;;;;;41.92;22.70;;;17.80;98.20;;;;;;4904030;29;20036;-94
2021/09/18 00:35:37;;;;;;;42.20;23.17;;;17.80;98.30;;;;;;4903535;29;20080;-93
2021/09/18 00:38:03;;;;;;;39.83;22.10;;;17.90;98.30;;;;;;4919453;29;20047;-95
2021/09/18 00:40:29;;;;;;;45.50;24.17;;;17.90;98.30;;;;;;4903559;29;20179;-95
2021/09/18 00:42:55;;;;;;;46.80;26.10;;;17.90;98.40;;;;;;4903204;29;20040;-95
2021/09/18 00:45:20;;;;;;;43.83;22.90;;;17.90;98.50;;;;;;4903215;29;20032;-94
2021/09/18 00:47:46;;;;;;;41.78;22.52;;;17.90;98.60;;;;;;4903507;29;20028;-94
2021/09/18 00:50:12;;;;;;;44.15;23.67;;;17.90;98.70;;;;;;4903250;29;20028;-95
2021/09/18 00:52:38;;;;;;;46.88;24.83;;;18.00;98.80;;;;;;4919955;29;20032;-94
2021/09/18 00:55:04;;;;;;;38.17;22.08;;;18.00;99.00;;;;;;4902826;29;20119;-95
2021/09/18 00:57:30;;;;;;;29.02;16.88;;;18.00;98.90;;;;;;4902922;29;20472;-95
2021/09/18 01:00:03;;;;;;;28.25;16.13;;;18.10;99.10;;;;;;4903298;29;20046;-93
2021/09/18 01:02:29;;;;;;;19.48;12.32;;;18.10;99.20;;;;;;4902873;29;20043;-95
2021/09/18 01:04:55;;;;;;;17.88;11.15;;;18.10;99.10;;;;;;4902926;29;20059;-94
2021/09/18 01:07:25;;;;;;;17.00;10.98;;;18.20;99.20;;;;;;4903174;29;20084;-95
2021/09/18 01:09:50;;;;;;;19.88;10.80;;;18.20;99.20;;;;;;4902896;29;20029;-94
2021/09/18 01:12:17;;;;;;;15.43;11.43;;;18.20;99.20;;;;;;4903229;29;20036;-94
2021/09/18 01:14:45;;;;;;;15.18;9.68;;;18.20;99.40;;;;;;4903040;29;20488;-94
2021/09/18 01:17:10;;;;;;;24.58;13.85;;;18.20;99.40;;;;;;4902534;29;20020;-95
2021/09/18 01:19:36;;;;;;;31.40;14.50;;;18.20;99.60;;;;;;4902639;29;20461;-94
2021/09/18 01:22:07;;;;;;;31.65;16.33;;;18.20;99.60;;;;;;4903007;29;20043;-94
2021/09/18 01:24:33;;;;;;;33.90;17.70;;;18.20;99.80;;;;;;4902541;29;20032;-95
2021/09/18 01:26:59;;;;;;;38.10;18.67;;;18.20;99.70;;;;;;4902783;29;20088;-94
2021/09/18 01:29:24;;;;;;;46.55;20.63;;;18.20;99.80;;;;;;4902992;29;20036;-95
2021/09/18 01:31:53;;;;;;;49.47;22.98;;;18.30;99.90;;;;;;4902478;29;20052;-94
2021/09/18 01:34:23;;;;;;;43.83;22.45;;;18.30;99.90;;;;;;4902432;29;20075;-95
2021/09/18 01:36:51;;;;;;;43.55;21.65;;;18.30;99.90;;;;;;4903057;29;20084;-95
2021/09/18 01:39:18;;;;;;;42.65;22.85;;;18.20;99.90;;;;;;4902318;29;20088;-95
2021/09/18 01:41:45;;;;;;;46.78;21.85;;;18.30;99.90;;;;;;4902469;29;20071;-95
2021/09/18 01:44:12;;;;;;;52.88;24.98;;;18.30;99.90;;;;;;4902428;29;20123;-95
2021/09/18 01:46:38;;;;;;;38.25;20.13;;;18.30;99.90;;;;;;4902069;29;20099;-95
2021/09/18 01:49:10;;;;;;;35.97;20.75;;;18.30;99.90;;;;;;4918757;29;20054;-95
2021/09/18 01:51:40;;;;;;;33.33;17.80;;;18.30;99.90;;;;;;4902670;29;20365;-95
2021/09/18 01:54:06;;;;;;;35.28;17.85;;;18.30;99.90;;;;;;4902052;29;20020;-96
2021/09/18 01:56:32;;;;;;;34.70;19.45;;;18.20;99.90;;;;;;4901923;29;20035;-95
2021/09/18 01:58:57;;;;;;;45.60;22.33;;;18.20;99.90;;;;;;4902200;29;20036;-95
2021/09/18 02:01:23;;;;;;;45.53;23.10;;;18.20;99.90;;;;;;4901941;29;20588;-94
2021/09/18 02:03:49;;;;;;;39.20;21.83;;;18.20;99.90;;;;;;4902683;29;20028;-95
2021/09/18 02:06:16;;;;;;;51.40;25.63;;;18.20;99.90;;;;;;4901338;29;20456;-95
2021/09/18 02:08:44;;;;;;;45.10;23.95;;;18.20;99.90;;;;;;4902311;29;20028;-95
2021/09/18 02:11:10;;;;;;;42.78;21.80;;;18.20;99.90;;;;;;4901861;29;20028;-94
2021/09/18 02:13:36;;;;;;;51.05;26.25;;;18.20;99.90;;;;;;4902090;29;20029;-94
2021/09/18 02:16:07;;;;;;;59.10;28.10;;;18.20;99.90;;;;;;4901997;29;20473;-95
2021/09/18 02:18:33;;;;;;;58.17;28.35;;;18.20;99.90;;;;;;4902498;29;20487;-95
2021/09/18 02:20:59;;;;;;;50.03;24.95;;;18.20;99.90;;;;;;4902140;29;20029;-94
2021/09/18 02:23:25;;;;;;;40.33;20.58;;;18.20;99.90;;;;;;4901734;29;20032;-95
2021/09/18 02:25:51;;;;;;;38.83;21.05;;;18.20;99.90;;;;;;4901969;29;20443;-95
2021/09/18 02:28:16;;;;;;;37.88;17.70;;;18.20;99.90;;;;;;4917396;29;20029;-95
2021/09/18 02:30:45;;;;;;;28.13;17.67;;;18.20;99.90;;;;;;4901760;29;20161;-95
2021/09/18 02:33:10;;;;;;;32.65;18.05;;;18.20;99.90;;;;;;4924811;29;20046;-95
2021/09/18 02:35:36;;;;;;;25.50;13.73;;;18.10;99.90;;;;;;4909671;29;20119;-95
2021/09/18 02:38:06;;;;;;;19.25;11.27;;;18.20;99.90;;;;;;4910118;29;20361;-95
2021/09/18 02:40:35;;;;;;;14.25;9.63;;;18.20;99.90;;;;;;4921013;29;20064;-94
2021/09/18 02:43:01;;;;;;;13.30;9.10;;;18.10;99.90;;;;;;4902405;29;20044;-95
2021/09/18 02:45:28;;;;;;;11.93;7.95;;;18.10;99.90;;;;;;4901687;29;20084;-95
2021/09/18 02:47:54;;;;;;;12.27;8.52;;;18.10;99.90;;;;;;4901630;29;20035;-95
2021/09/18 02:50:21;;;;;;;11.32;7.07;;;18.10;99.90;;;;;;4901397;29;20024;-95
2021/09/18 02:52:47;;;;;;;14.00;8.73;;;18.10;99.90;;;;;;4901541;29;20032;-95
2021/09/18 02:55:13;;;;;;;9.02;7.53;;;18.20;99.90;;;;;;4901847;29;20033;-95
2021/09/18 02:57:39;;;;;;;9.82;8.00;;;18.10;99.90;;;;;;4902422;29;20032;-95
2021/09/18 03:00:08;;;;;;;10.23;7.68;;;18.20;99.90;;;;;;4919935;29;20043;-95
2021/09/18 03:02:34;;;;;;;10.85;7.75;;;18.20;99.90;;;;;;4907433;29;20036;-94
2021/09/18 03:05:00;;;;;;;8.82;7.45;;;18.20;99.90;;;;;;4910604;29;20468;-94
2021/09/18 03:07:26;;;;;;;8.18;7.10;;;18.10;99.90;;;;;;4928423;29;20075;-95
2021/09/18 03:09:51;;;;;;;8.25;7.38;;;18.10;99.90;;;;;;4905259;29;20044;-94
2021/09/18 03:12:17;;;;;;;9.75;8.05;;;18.10;99.90;;;;;;4901573;29;20036;-94
2021/09/18 03:14:46;;;;;;;9.23;8.27;;;18.10;99.90;;;;;;4901661;29;20493;-95
2021/09/18 03:17:12;;;;;;;10.70;9.25;;;18.10;99.90;;;;;;4901518;29;20484;-94
2021/09/18 03:19:37;;;;;;;9.95;8.18;;;18.10;99.90;;;;;;4904916;29;20035;-94
2021/09/18 03:22:03;;;;;;;8.77;7.75;;;18.10;99.90;;;;;;4920457;29;20032;-95
2021/09/18 03:24:29;;;;;;;12.02;8.07;;;18.10;99.90;;;;;;4905350;29;20028;-95
2021/09/18 03:26:56;;;;;;;9.52;7.78;;;18.10;99.90;;;;;;4911887;29;20055;-94
2021/09/18 03:29:22;;;;;;;9.38;8.35;;;18.10;99.90;;;;;;4909929;29;20119;-94
2021/09/18 03:31:48;;;;;;;8.35;7.50;;;18.10;99.90;;;;;;4906174;29;20056;-95
2021/09/18 03:34:13;;;;;;;8.10;7.30;;;18.10;99.90;;;;;;4921049;29;20032;-95
2021/09/18 03:36:39;;;;;;;8.07;7.18;;;18.10;99.90;;;;;;4906453;29;20576;-94
2021/09/18 03:39:05;;;;;;;8.50;7.47;;;18.10;99.90;;;;;;4907122;29;20119;-95
2021/09/18 03:41:31;;;;;;;8.13;7.07;;;18.10;99.90;;;;;;4909322;29;20071;-93
2021/09/18 03:44:00;;;;;;;9.48;7.32;;;18.10;99.90;;;;;;4912616;29;20039;-95
2021/09/18 03:46:25;;;;;;;10.65;8.13;;;18.10;99.90;;;;;;4929200;29;20107;-95
2021/09/18 03:48:51;;;;;;;9.65;8.65;;;18.10;99.90;;;;;;4906967;29;20064;-95
2021/09/18 03:51:17;;;;;;;10.30;8.70;;;18.10;99.90;;;;;;4904507;29;20067;-94
2021/09/18 03:53:45;;;;;;;9.98;8.27;;;18.10;99.90;;;;;;4904403;29;20043;-95
2021/09/18 03:56:11;;;;;;;12.82;8.80;;;18.10;99.90;;;;;;4903952;29;20051;-94
2021/09/18 03:58:37;;;;;;;11.63;9.25;;;18.10;99.90;;;;;;4904268;29;20467;-94
2021/09/18 04:01:03;;;;;;;9.95;8.95;;;18.10;99.90;;;;;;4921332;29;20373;-94
2021/09/18 04:03:28;;;;;;;9.52;8.52;;;18.10;99.90;;;;;;4903913;29;20079;-95
2021/09/18 04:05:54;;;;;;;10.35;9.18;;;18.10;99.90;;;;;;4920812;29;20024;-94
2021/09/18 04:08:20;;;;;;;9.27;8.38;;;18.10;99.90;;;;;;4904146;29;20365;-94
2021/09/18 04:10:46;;;;;;;9.00;8.10;;;18.10;99.90;;;;;;4920907;29;20024;-93
2021/09/18 04:13:12;;;;;;;10.68;9.13;;;18.10;99.90;;;;;;4903926;29;20103;-94
2021/09/18 04:15:37;;;;;;;10.38;9.38;;;18.10;99.90;;;;;;4904052;29;20063;-95
2021/09/18 04:18:03;;;;;;;10.43;8.43;;;18.10;99.90;;;;;;4904079;29;20045;-95
2021/09/18 04:20:29;;;;;;;10.25;8.68;;;18.20;99.90;;;;;;4903613;29;20027;-94
2021/09/18 04:22:55;;;;;;;10.88;9.77;;;18.10;99.90;;;;;;4903782;29;20038;-95
2021/09/18 04:25:20;;;;;;;11.57;8.73;;;18.20;99.90;;;;;;4903675;29;20123;-94
2021/09/18 04:27:46;;;;;;;9.45;8.52;;;18.20;99.90;;;;;;4919209;29;20028;-95
2021/09/18 04:30:13;;;;;;;12.68;9.02;;;18.20;99.90;;;;;;4903027;29;20028;-94
2021/09/18 04:32:38;;;;;;;12.40;9.70;;;18.20;99.90;;;;;;4903811;29;20032;-94
2021/09/18 04:35:05;;;;;;;10.85;9.55;;;18.30;99.90;;;;;;4903350;29;20024;-94
2021/09/18 04:37:31;;;;;;;10.50;8.98;;;18.40;99.90;;;;;;4903270;29;20083;-95
2021/09/18 04:39:56;;;;;;;8.90;8.02;;;18.40;99.90;;;;;;4903862;29;20036;-94
2021/09/18 04:42:22;;;;;;;12.65;8.05;;;18.50;99.90;;;;;;4903667;29;20064;-91
2021/09/18 04:44:48;;;;;;;14.18;11.85;;;18.50;99.90;;;;;;4903523;29;20473;-92
2021/09/18 04:47:13;;;;;;;18.38;11.65;;;18.50;99.90;;;;;;4905757;29;20028;-92
2021/09/18 04:49:40;;;;;;;22.05;15.02;;;18.50;99.90;;;;;;4904349;29;20484;-94
2021/09/18 04:52:06;;;;;;;24.88;15.63;;;18.60;99.90;;;;;;4903512;29;20036;-94
2021/09/18 04:54:34;;;;;;;27.63;16.23;;;18.60;99.90;;;;;;4903497;29;20047;-94
2021/09/18 04:57:00;;;;;;;23.75;16.10;;;18.70;99.90;;;;;;4903368;29;20476;-95
2021/09/18 04:59:26;;;;;;;27.70;17.45;;;18.70;99.90;;;;;;4903867;29;20118;-95
2021/09/18 05:01:52;;;;;;;25.92;17.23;;;18.70;99.90;;;;;;4903885;29;20044;-94
2021/09/18 05:04:17;;;;;;;34.70;19.83;;;18.80;99.90;;;;;;4903798;29;20063;-94
2021/09/18 05:06:45;;;;;;;38.58;21.35;;;18.80;99.90;;;;;;4903479;29;20032;-95
2021/09/18 05:09:11;;;;;;;55.35;30.55;;;18.90;99.90;;;;;;4919040;29;20107;-94
2021/09/18 05:11:37;;;;;;;62.83;34.15;;;18.90;99.90;;;;;;4904376;29;20472;-94
2021/09/18 05:14:03;;;;;;;64.20;33.33;;;19.00;99.90;;;;;;4903686;29;20472;-94
2021/09/18 05:16:29;;;;;;;60.92;32.40;;;19.00;99.90;;;;;;4903084;29;20172;-95
2021/09/18 05:18:54;;;;;;;66.70;34.00;;;19.10;99.90;;;;;;4902702;29;20159;-94
2021/09/18 05:21:20;;;;;;;65.72;33.90;;;19.10;99.90;;;;;;4902855;29;20084;-95
2021/09/18 05:23:46;;;;;;;53.63;30.70;;;19.20;99.90;;;;;;4903119;29;20535;-95
2021/09/18 05:26:12;;;;;;;42.83;23.23;;;19.20;99.80;;;;;;4902543;29;20024;-94
2021/09/18 05:28:38;;;;;;;46.83;24.70;;;19.30;99.70;;;;;;4902210;29;20028;-95
2021/09/18 05:31:04;;;;;;;43.42;25.00;;;19.40;99.60;;;;;;4902570;29;20056;-95
2021/09/18 05:33:29;;;;;;;47.38;25.88;;;19.50;99.40;;;;;;4918133;29;20032;-95
2021/09/18 05:35:55;;;;;;;41.72;22.98;;;19.50;99.30;;;;;;4902499;29;20032;-94
2021/09/18 05:38:22;;;;;;;48.15;27.48;;;19.60;99.10;;;;;;4902152;29;20032;-94
2021/09/18 05:40:48;;;;;;;47.05;26.27;;;19.60;99.00;;;;;;4903109;29;20488;-94
2021/09/18 05:43:16;;;;;;;45.25;24.35;;;19.70;98.90;;;;;;4902590;29;20028;-95
2021/09/18 05:45:42;;;;;;;42.30;24.05;;;19.70;98.70;;;;;;4903353;29;20131;-94
2021/09/18 05:48:07;;;;;;;37.35;21.42;;;19.70;98.70;;;;;;4902045;29;20064;-95
2021/09/18 05:50:35;;;;;;;37.72;21.38;;;19.80;98.70;;;;;;4901990;29;20032;-95
2021/09/18 05:53:09;;;;;;;33.47;20.65;;;19.80;98.40;;;;;;4903488;29;20043;-94
2021/09/18 05:55:35;;;;;;;33.75;19.40;;;19.90;98.30;;;;;;4903730;29;20103;-94
2021/09/18 05:58:01;;;;;;;32.58;19.52;;;19.90;98.30;;;;;;4902411;29;20036;-94
2021/09/18 06:00:30;;;;;;;36.55;20.35;;;19.90;98.20;;;;;;4904232;29;20028;-95
2021/09/18 06:02:56;;;;;;;31.08;20.15;;;19.90;98.10;;;;;;4906663;29;20039;-94
2021/09/18 06:05:24;;;;;;;28.15;17.30;;;20.00;98.00;;;;;;4911377;29;20061;-94
2021/09/18 06:07:50;;;;;;;26.40;16.73;;;20.00;97.90;;;;;;4904986;29;20039;-93
2021/09/18 06:10:18;;;;;;;19.40;14.07;;;20.00;97.90;;;;;;4913863;29;20032;-94
2021/09/18 06:12:47;;;;;;;19.13;14.25;;;20.00;97.90;;;;;;4912831;29;20111;-94
2021/09/18 06:15:13;;;;;;;28.95;18.25;;;20.00;97.80;;;;;;4904473;29;20024;-94
2021/09/18 06:17:39;;;;;;;29.25;17.13;;;20.00;97.80;;;;;;4904492;29;20111;-93
2021/09/18 06:20:09;;;;;;;37.30;22.45;;;20.10;97.70;;;;;;4907694;29;20039;-94
2021/09/18 06:22:53;;;;;;;34.35;20.73;;;20.10;97.70;;;;;;4904658;29;20035;-94
2021/09/18 06:25:18;;;;;;;36.42;23.23;;;20.20;97.70;;;;;;4904476;29;20189;-95
2021/09/18 06:27:47;;;;;;;41.05;23.95;;;20.40;97.70;;;;;;4903540;29;20095;-94
2021/09/18 06:30:15;;;;;;;46.15;23.88;;;20.40;97.50;;;;;;4904376;29;20510;-93
2021/09/18 06:32:41;;;;;;;38.88;21.98;;;20.60;97.30;;;;;;4920292;29;20036;-94
2021/09/18 06:35:08;;;;;;;40.47;23.30;;;20.60;97.10;;;;;;4902858;29;20103;-95
2021/09/18 06:37:41;;;;;;;35.75;22.50;;;20.70;96.90;;;;;;4902198;29;20028;-94
2021/09/18 06:40:07;;;;;;;32.00;19.85;;;20.80;96.60;;;;;;4902501;29;20168;-94
2021/09/18 06:42:33;;;;;;;33.13;20.67;;;20.80;96.50;;;;;;4901811;29;20028;-95
2021/09/18 06:44:59;;;;;;;40.65;21.40;;;20.90;96.50;;;;;;4903462;29;20051;-95
2021/09/18 06:47:27;;;;;;;43.13;23.63;;;20.90;96.30;;;;;;4901763;29;20047;-94
2021/09/18 06:49:52;;;;;;;33.42;20.38;;;21.00;96.30;;;;;;4902341;29;20051;-94
2021/09/18 06:52:18;;;;;;;38.85;22.95;;;21.00;96.20;;;;;;4902957;29;20031;-95
2021/09/18 06:54:47;;;;;;;33.72;22.52;;;21.00;96.00;;;;;;4905569;29;20099;-94
2021/09/18 06:57:13;;;;;;;28.92;17.90;;;21.00;96.00;;;;;;4908769;29;20111;-94
2021/09/18 06:59:39;;;;;;;30.35;18.65;;;21.10;95.90;;;;;;4906516;29;20036;-94
2021/09/18 07:02:08;;;;;;;33.28;20.30;;;21.10;95.80;;;;;;4906177;29;20070;-95
2021/09/18 07:04:34;;;;;;;33.00;19.27;;;21.10;95.70;;;;;;4905873;29;20032;-94
2021/09/18 07:07:00;;;;;;;27.27;18.35;;;21.10;95.70;;;;;;4905575;29;20040;-94
2021/09/18 07:09:25;;;;;;;26.90;17.88;;;21.10;95.60;;;;;;4905843;29;20075;-94
2021/09/18 07:11:51;;;;;;;35.78;21.17;;;21.10;95.70;;;;;;4907192;29;20036;-94
2021/09/18 07:14:17;;;;;;;31.92;20.33;;;21.00;95.70;;;;;;4905282;29;20024;-94
2021/09/18 07:16:43;;;;;;;29.65;20.17;;;21.00;95.70;;;;;;4921062;29;20019;-94
2021/09/18 07:19:08;;;;;;;33.78;19.80;;;20.90;95.80;;;;;;4941113;29;20039;-94
2021/09/18 07:21:34;;;;;;;38.53;21.20;;;20.90;96.00;;;;;;4928482;29;20122;-95
2021/09/18 07:24:06;;;;;;;29.10;17.40;;;20.80;96.00;;;;;;4926434;29;20043;-94
2021/09/18 07:26:32;;;;;;;33.13;18.63;;;20.80;96.10;;;;;;4925842;29;20040;-94
2021/09/18 07:28:58;;;;;;;31.38;20.33;;;20.70;96.20;;;;;;4926141;29;20408;-94
2021/09/18 07:31:29;;;;;;;33.50;19.08;;;20.70;96.30;;;;;;4925419;29;20052;-94
2021/09/18 07:33:57;;;;;;;36.47;21.67;;;20.60;96.40;;;;;;4926195;29;20045;-94
2021/09/18 07:36:26;;;;;;;35.63;19.98;;;20.60;96.40;;;;;;4924443;29;20481;-93
2021/09/18 07:38:51;;;;;;;33.80;20.63;;;20.60;96.60;;;;;;4912363;29;20127;-95
2021/09/18 07:41:17;;;;;;;36.40;21.38;;;20.60;96.60;;;;;;4915068;29;20593;-94
2021/09/18 07:43:43;;;;;;;36.50;21.15;;;20.60;96.60;;;;;;4922224;29;20039;-94
2021/09/18 07:46:09;;;;;;;30.25;19.20;;;20.60;96.60;;;;;;4922677;29;20031;-90
2021/09/18 07:48:35;;;;;;;30.25;18.23;;;20.50;96.60;;;;;;4922010;29;20032;-93
2021/09/18 07:51:02;;;;;;;30.17;18.92;;;20.50;96.70;;;;;;4923614;29;20043;-91
2021/09/18 07:53:28;;;;;;;23.42;15.48;;;20.50;96.80;;;;;;4924271;29;20082;-91
2021/09/18 07:55:54;;;;;;;20.23;15.00;;;20.50;97.00;;;;;;4921223;29;20031;-91
2021/09/18 07:58:20;;;;;;;18.35;13.55;;;20.50;97.10;;;;;;4920789;29;20029;-92
2021/09/18 08:00:46;;;;;;;18.98;12.75;;;20.50;97.10;;;;;;4923061;29;20155;-92
2021/09/18 08:03:14;;;;;;;13.32;11.43;;;20.50;97.20;;;;;;4923334;29;20035;-93
2021/09/18 08:05:40;;;;;;;16.75;12.40;;;20.50;97.20;;;;;;4919810;29;20028;-93
2021/09/18 08:08:06;;;;;;;14.95;12.20;;;20.50;97.30;;;;;;4920607;29;20031;-93
2021/09/18 08:10:34;;;;;;;13.57;12.20;;;20.60;97.30;;;;;;4920724;29;20046;-93
2021/09/18 08:13:00;;;;;;;18.70;11.93;;;20.60;97.20;;;;;;4921557;29;20448;-92
2021/09/18 08:15:26;;;;;;;14.55;12.07;;;20.60;97.20;;;;;;4922582;29;20079;-93
2021/09/18 08:17:52;;;;;;;15.75;11.63;;;20.60;97.10;;;;;;4921927;29;20035;-92
2021/09/18 08:20:19;;;;;;;19.77;14.40;;;20.70;97.10;;;;;;4922017;29;20038;-91
2021/09/18 08:22:45;;;;;;;17.42;12.23;;;20.70;97.10;;;;;;4922151;29;20042;-91
2021/09/18 08:25:11;;;;;;;14.50;11.50;;;20.70;97.00;;;;;;4922465;29;20035;-91
2021/09/18 08:27:37;;;;;;;14.10;12.25;;;20.70;97.10;;;;;;4922770;29;20039;-92
2021/09/18 08:30:07;;;;;;;13.85;12.40;;;20.70;97.10;;;;;;4921866;29;20432;-92
2021/09/18 08:32:33;;;;;;;15.60;14.00;;;20.80;97.10;;;;;;4921903;29;20087;-92
2021/09/18 08:34:59;;;;;;;15.88;12.13;;;20.80;97.00;;;;;;4922031;29;20031;-91
2021/09/18 08:37:25;;;;;;;12.93;11.38;;;20.80;97.00;;;;;;4921751;29;20384;-92
2021/09/18 08:39:51;;;;;;;14.80;12.90;;;20.70;97.00;;;;;;4921970;29;20118;-91
2021/09/18 08:42:18;;;;;;;13.43;11.85;;;20.70;97.10;;;;;;4939061;29;20035;-91
2021/09/18 08:44:44;;;;;;;13.65;10.85;;;20.70;97.20;;;;;;4938510;29;20042;-92
2021/09/18 08:47:13;;;;;;;10.90;9.30;;;20.60;97.10;;;;;;4921694;29;20099;-92
2021/09/18 08:49:40;;;;;;;14.15;10.48;;;20.60;97.30;;;;;;4922670;29;20118;-92
2021/09/18 08:52:06;;;;;;;10.35;9.25;;;20.60;97.50;;;;;;4921917;29;20480;-91
2021/09/18 08:54:33;;;;;;;11.20;9.95;;;20.60;97.60;;;;;;4922171;29;20095;-91
2021/09/18 08:56:59;;;;;;;9.55;8.20;;;20.60;97.70;;;;;;4921622;29;20036;-91
2021/09/18 08:59:24;;;;;;;9.85;8.85;;;20.60;97.80;;;;;;4921954;29;20050;-91
2021/09/18 09:02:10;;;;;;;9.23;8.02;;;20.50;97.90;;;;;;4921653;29;20551;-91
2021/09/18 09:04:36;;;;;;;8.95;8.05;;;20.50;98.20;;;;;;4929640;29;20055;-91
2021/09/18 09:07:02;;;;;;;9.32;8.43;;;20.50;98.30;;;;;;4931843;29;20036;-92
2021/09/18 09:09:53;;;;;;;9.77;8.82;;;20.50;98.40;;;;;;4944699;29;20676;-93
2021/09/18 09:12:32;;;;;;;10.27;8.27;;;20.50;98.60;;;;;;4911836;29;20051;-92
2021/09/18 09:15:01;;;;;;;11.00;8.88;;;20.50;98.80;;;;;;4922628;29;20091;-91
2021/09/18 09:17:32;;;;;;;10.32;9.25;;;20.60;98.90;;;;;;4922720;29;20042;-92
2021/09/18 09:19:58;;;;;;;9.48;8.27;;;20.70;99.00;;;;;;4922660;29;20038;-92
2021/09/18 09:22:42;;;;;;;10.45;9.05;;;20.80;98.80;;;;;;4925070;29;20028;-91
2021/09/18 09:25:26;;;;;;;10.13;9.13;;;20.90;98.50;;;;;;4927608;29;20036;-92
2021/09/18 09:27:52;;;;;;;;;;;21.00;98.30;;;;;;4919990;29;20035;-92
2021/09/18 09:30:32;;;;;;;10.02;7.93;;;20.90;98.30;;;;;;4919439;29;20264;-92
2021/09/18 09:33:06;;;;;;;10.38;9.07;;;20.90;98.00;;;;;;4920425;29;20118;-91
2021/09/18 09:35:32;;;;;;;9.95;8.95;;;20.90;98.10;;;;;;4920071;29;20083;-88
2021/09/18 09:37:58;;;;;;;10.05;9.05;;;20.90;98.10;;;;;;4937227;29;20027;-88
2021/09/18 09:40:40;;;;;;;10.63;8.30;;;20.80;98.30;;;;;;4937656;29;20028;-89
2021/09/18 09:43:08;;;;;;;8.60;7.70;;;20.80;98.40;;;;;;4920156;29;20395;-88
2021/09/18 09:45:35;;;;;;;10.48;9.45;;;20.80;98.40;;;;;;4919872;29;20055;-89
2021/09/18 09:48:14;;;;;;;11.23;10.02;;;20.80;98.50;;;;;;4920500;29;20035;-88
2021/09/18 09:50:42;;;;;;;10.05;8.88;;;20.80;98.60;;;;;;4920802;29;20459;-89
2021/09/18 09:53:30;;;;;;;10.63;9.25;;;20.80;98.60;;;;;;4919694;29;20074;-88
2021/09/18 09:55:57;;;;;;;9.32;8.32;;;20.80;98.60;;;;;;4920127;29;20118;-88
2021/09/18 09:58:23;;;;;;;10.50;9.32;;;20.80;98.60;;;;;;4919588;29;20024;-89
2021/09/18 10:00:51;;;;;;;8.88;8.05;;;20.70;98.70;;;;;;4936798;29;20047;-88
2021/09/18 10:03:26;;;;;;;8.60;7.70;;;20.60;98.80;;;;;;4919603;29;20035;-88
2021/09/18 10:05:54;;;;;;;9.75;8.75;;;20.60;99.00;;;;;;4919827;29;20055;-88
2021/09/18 10:08:24;;;;;;;10.18;8.50;;;20.50;99.00;;;;;;4920252;29;20031;-88
2021/09/18 10:10:51;;;;;;;9.00;8.10;;;20.50;99.30;;;;;;4919565;29;20494;-87
2021/09/18 10:13:22;;;;;;;9.35;8.43;;;20.40;99.40;;;;;;4919543;29;20043;-88
2021/09/18 10:15:50;;;;;;;8.85;7.95;;;20.30;99.60;;;;;;4919492;29;20027;-89
2021/09/18 10:18:16;;;;;;;11.07;10.02;;;20.30;99.70;;;;;;4919351;29;20028;-89
2021/09/18 10:23:30;;;;;;;12.10;10.90;;;20.20;99.90;;;;;;4906342;29;20074;-89
2021/09/18 10:25:58;;;;;;;11.98;10.77;;;20.20;99.90;;;;;;4919451;29;20091;-88
2021/09/18 10:28:40;;;;;;;13.02;11.23;;;20.10;99.90;;;;;;4918922;29;20027;-88
2021/09/18 10:31:18;;;;;;;11.68;10.57;;;20.10;99.90;;;;;;4936623;29;20043;-89
2021/09/18 10:33:46;;;;;;;11.27;10.18;;;20.10;99.90;;;;;;4936408;29;20028;-88
2021/09/18 10:36:40;;;;;;;11.00;9.90;;;20.00;99.90;;;;;;4919567;29;20067;-89
2021/09/18 10:39:18;;;;;;;7.93;7.03;;;20.00;99.90;;;;;;4919931;29;20042;-88
2021/09/18 10:41:50;;;;;;;7.82;7.03;;;20.00;99.90;;;;;;4919306;29;20075;-88
2021/09/18 10:44:17;;;;;;;8.38;7.55;;;19.90;99.90;;;;;;4919507;29;20110;-89
2021/09/18 10:46:48;;;;;;;7.95;7.15;;;19.90;99.90;;;;;;4919180;29;20091;-89
2021/09/18 10:49:33;;;;;;;8.65;7.80;;;19.80;99.90;;;;;;4919261;29;20369;-89
2021/09/18 10:52:17;;;;;;;8.20;7.35;;;19.80;99.90;;;;;;4919632;29;20067;-89
2021/09/18 10:55:05;;;;;;;9.35;8.45;;;19.80;99.90;;;;;;4937364;29;20046;-89
2021/09/18 10:57:48;;;;;;;10.55;8.02;;;19.80;99.90;;;;;;4918896;29;20063;-90
2021/09/18 11:00:22;;;;;;;13.48;8.77;;;19.80;99.90;;;;;;4913209;29;20167;-91
2021/09/18 11:02:53;;;;;;;13.35;9.10;;;19.80;99.90;;;;;;4937822;29;20455;-92
2021/09/18 11:05:22;;;;;;;16.00;8.77;;;19.80;99.90;;;;;;4952514;29;20478;-89
2021/09/18 11:07:50;;;;;;;15.85;9.77;;;19.70;99.90;;;;;;4918782;29;20353;-89
2021/09/18 11:10:49;;;;;;;22.20;10.98;;;19.70;99.90;;;;;;4934681;29;20365;-89
2021/09/18 11:13:15;;;;;;;29.58;14.18;;;19.70;99.90;;;;;;4917762;29;20035;-90
2021/09/18 11:15:48;;;;;;;31.33;15.90;;;19.70;99.90;;;;;;4919181;29;20034;-90
2021/09/18 11:18:42;;;;;;;32.28;15.05;;;19.70;99.90;;;;;;4921103;29;20102;-92
2021/09/18 11:21:47;;;;;;;33.17;16.50;;;19.70;99.90;;;;;;4920470;29;20036;-91
2021/09/18 11:24:16;;;;;;;16.58;8.43;;;19.70;99.90;;;;;;4915056;29;20086;-91
2021/09/18 11:26:58;;;;;;;8.20;6.35;;;19.60;99.90;;;;;;4919988;29;20091;-90
2021/09/18 11:29:29;;;;;;;5.03;4.22;;;19.50;99.90;;;;;;4923896;29;20031;-92
2021/09/18 11:32:17;;;;;;;3.70;3.28;;;19.40;99.90;;;;;;4922412;29;20051;-92
2021/09/18 11:34:43;;;;;;;3.55;2.78;;;19.20;99.90;;;;;;4925940;29;20046;-91
2021/09/18 11:37:12;;;;;;;4.30;3.25;;;19.00;99.90;;;;;;4923260;29;20036;-91
2021/09/18 11:39:51;;;;;;;5.05;3.15;;;18.90;99.90;;;;;;4940133;29;20028;-91
2021/09/18 11:42:19;;;;;;;3.40;2.85;;;18.80;99.90;;;;;;4938683;29;20038;-90
2021/09/18 11:44:49;;;;;;;3.50;2.83;;;18.80;99.90;;;;;;4922449;29;20032;-91
2021/09/18 11:47:27;;;;;;;4.97;3.20;;;18.70;99.90;;;;;;4922010;29;20066;-91
2021/09/18 11:49:53;;;;;;;3.22;2.92;;;18.70;99.90;;;;;;4921348;29;20047;-91
2021/09/18 11:52:30;;;;;;;3.75;3.20;;;18.70;99.90;;;;;;4938306;29;20063;-90
2021/09/18 11:54:56;;;;;;;4.93;3.90;;;18.70;99.90;;;;;;4922028;29;20035;-90
2021/09/18 11:57:22;;;;;;;5.55;4.68;;;18.70;99.90;;;;;;4921427;29;20031;-90
2021/09/18 11:59:47;;;;;;;5.70;4.20;;;18.80;99.90;;;;;;4938224;29;20028;-91
2021/09/18 12:02:30;;;;;;;4.07;3.67;;;18.80;99.90;;;;;;4920294;29;20036;-90
2021/09/18 12:04:56;;;;;;;4.80;4.40;;;18.90;99.90;;;;;;4921129;29;20376;-90
2021/09/18 12:07:22;;;;;;;7.18;5.35;;;19.00;99.90;;;;;;4920240;29;20090;-90
2021/09/18 12:09:49;;;;;;;7.10;5.50;;;19.00;99.90;;;;;;4921934;29;20036;-90
2021/09/18 12:12:26;;;;;;;6.65;6.05;;;19.00;99.90;;;;;;4902685;29;20059;-90
2021/09/18 12:14:55;;;;;;;7.20;6.57;;;19.10;99.90;;;;;;4902706;29;20036;-90
2021/09/18 12:17:21;;;;;;;8.88;7.05;;;19.10;99.90;;;;;;4902980;29;20038;-89
2021/09/18 12:19:48;;;;;;;7.38;6.68;;;19.20;99.90;;;;;;4906773;29;20024;-90
2021/09/18 12:22:16;;;;;;;8.30;7.10;;;19.20;99.90;;;;;;4921879;29;20036;-90
2021/09/18 12:24:46;;;;;;;6.90;6.20;;;19.20;99.90;;;;;;4921008;29;20040;-90
2021/09/18 12:27:34;;;;;;;8.85;7.18;;;19.30;99.90;;;;;;4938576;29;20028;-90
2021/09/18 12:30:06;;;;;;;8.95;8.05;;;19.30;99.90;;;;;;4918022;29;20032;-90
2021/09/18 12:33:15;;;;;;;9.63;7.65;;;19.40;99.90;;;;;;4920302;29;20056;-92
2021/09/18 12:35:48;;;;;;;8.52;7.28;;;19.40;99.90;;;;;;4923062;29;20051;-90
2021/09/18 12:38:17;;;;;;;7.68;6.80;;;19.50;99.90;;;;;;4938364;29;20031;-90
2021/09/18 12:40:49;;;;;;;8.52;7.00;;;19.50;99.90;;;;;;4921097;29;20118;-90
2021/09/18 12:43:22;;;;;;;7.63;6.93;;;19.60;99.90;;;;;;4921020;29;20028;-90